CYSA weather

Stratford Municipal Airport
Stratford, Ontario, Canada

Public forecast

Using degrees Celsius for public forecast. Weather courtesy of forecast.io.

Closest aviation weather report (METAR) to Stratford Municipal Airport

Closest report is Waterloo Airport, 24.4 nm (45.2 km) E. Retrieved 2019/12/11 10:00 UTC (54 minutes ago):

CYKF 111000Z AUTO 23012G17KT 9SM -SN OVC037 M07/M11 A3013 RMK SLP224

Closest aviation forecast (TAF) to Stratford Municipal Airport

Closest forecast is Waterloo Airport, 24.4 nm (45.2 km) E. Retrieved 2019/12/11 08:42 UTC (2 hours ago):

TAF CYKF 110738Z 1108/1120 24012KT P6SM BKN030 TEMPO 1108/1117 P6SM -SHSN OVC020 BECMG 1113/1115 24015G25KT FM111700 25018G28KT P6SM -SHSN BKN025 TEMPO 1117/1120 2SM -SHSN OVC020 BECMG 1118/1120 27020G30KT RMK FCST BASED ON AUTO OBS NXT FCST BY 111400Z